sensor_id;sensor_type;location;lat;lon;timestamp;P1;durP1;ratioP1;P2;durP2;ratioP2
21671;SDS011;10997;52.242;8.168;2023-05-10T00:02:44;11.77;;;10.57;;
21671;SDS011;10997;52.242;8.168;2023-05-10T00:07:45;12.25;;;9.82;;
21671;SDS011;10997;52.242;8.168;2023-05-10T00:12:46;10.52;;;9.35;;
21671;SDS011;10997;52.242;8.168;2023-05-10T00:17:46;13.15;;;10.40;;
21671;SDS011;10997;52.242;8.168;2023-05-10T00:22:47;12.38;;;11.07;;
21671;SDS011;10997;52.242;8.168;2023-05-10T00:27:47;14.13;;;12.30;;
21671;SDS011;10997;52.242;8.168;2023-05-10T00:32:48;13.57;;;11.38;;
21671;SDS011;10997;52.242;8.168;2023-05-10T00:37:49;13.35;;;11.60;;
21671;SDS011;10997;52.242;8.168;2023-05-10T00:42:50;14.23;;;11.38;;
21671;SDS011;10997;52.242;8.168;2023-05-10T00:47:51;13.02;;;11.65;;
21671;SDS011;10997;52.242;8.168;2023-05-10T00:52:54;15.70;;;12.60;;
21671;SDS011;10997;52.242;8.168;2023-05-10T00:57:55;15.60;;;11.13;;
21671;SDS011;10997;52.242;8.168;2023-05-10T01:02:56;10.90;;;9.48;;
21671;SDS011;10997;52.242;8.168;2023-05-10T01:07:56;10.48;;;9.38;;
21671;SDS011;10997;52.242;8.168;2023-05-10T01:12:57;13.93;;;9.55;;
21671;SDS011;10997;52.242;8.168;2023-05-10T01:17:59;11.07;;;9.75;;
21671;SDS011;10997;52.242;8.168;2023-05-10T01:28:57;10.57;;;9.48;;
21671;SDS011;10997;52.242;8.168;2023-05-10T01:39:42;11.73;;;9.40;;
21671;SDS011;10997;52.242;8.168;2023-05-10T01:45:06;10.13;;;9.10;;
21671;SDS011;10997;52.242;8.168;2023-05-10T01:50:19;12.20;;;10.85;;
21671;SDS011;10997;52.242;8.168;2023-05-10T01:55:29;13.98;;;11.43;;
21671;SDS011;10997;52.242;8.168;2023-05-10T02:00:33;14.93;;;11.80;;
21671;SDS011;10997;52.242;8.168;2023-05-10T02:05:35;14.23;;;12.15;;
21671;SDS011;10997;52.242;8.168;2023-05-10T02:10:36;14.90;;;13.40;;
21671;SDS011;10997;52.242;8.168;2023-05-10T02:15:39;13.93;;;12.43;;
21671;SDS011;10997;52.242;8.168;2023-05-10T02:20:41;14.35;;;12.85;;
21671;SDS011;10997;52.242;8.168;2023-05-10T02:25:44;14.35;;;12.77;;
21671;SDS011;10997;52.242;8.168;2023-05-10T02:30:47;16.35;;;11.73;;
21671;SDS011;10997;52.242;8.168;2023-05-10T02:35:48;8.10;;;6.78;;
21671;SDS011;10997;52.242;8.168;2023-05-10T02:40:50;9.02;;;6.85;;
21671;SDS011;10997;52.242;8.168;2023-05-10T02:45:51;8.52;;;6.63;;
21671;SDS011;10997;52.242;8.168;2023-05-10T02:50:52;8.75;;;7.00;;
21671;SDS011;10997;52.242;8.168;2023-05-10T02:55:57;9.50;;;7.70;;
21671;SDS011;10997;52.242;8.168;2023-05-10T03:01:02;10.70;;;7.90;;
21671;SDS011;10997;52.242;8.168;2023-05-10T03:06:02;10.63;;;8.07;;
21671;SDS011;10997;52.242;8.168;2023-05-10T03:17:00;9.52;;;6.95;;
21671;SDS011;10997;52.242;8.168;2023-05-10T03:22:10;1.95;;;1.80;;
21671;SDS011;10997;52.242;8.168;2023-05-10T03:27:13;3.00;;;1.45;;
21671;SDS011;10997;52.242;8.168;2023-05-10T03:32:15;4.53;;;1.60;;
21671;SDS011;10997;52.242;8.168;2023-05-10T03:37:15;2.35;;;1.80;;
21671;SDS011;10997;52.242;8.168;2023-05-10T03:42:16;2.00;;;1.80;;
21671;SDS011;10997;52.242;8.168;2023-05-10T03:47:17;6.30;;;3.88;;
21671;SDS011;10997;52.242;8.168;2023-05-10T03:52:18;5.72;;;4.63;;
21671;SDS011;10997;52.242;8.168;2023-05-10T03:57:18;6.50;;;5.82;;
21671;SDS011;10997;52.242;8.168;2023-05-10T04:02:19;9.10;;;8.05;;
21671;SDS011;10997;52.242;8.168;2023-05-10T04:07:20;10.02;;;8.70;;
21671;SDS011;10997;52.242;8.168;2023-05-10T04:12:20;12.95;;;9.25;;
21671;SDS011;10997;52.242;8.168;2023-05-10T04:17:21;13.32;;;11.90;;
21671;SDS011;10997;52.242;8.168;2023-05-10T04:22:21;14.98;;;12.27;;
21671;SDS011;10997;52.242;8.168;2023-05-10T04:27:22;14.20;;;11.75;;
21671;SDS011;10997;52.242;8.168;2023-05-10T04:32:23;13.35;;;10.80;;
21671;SDS011;10997;52.242;8.168;2023-05-10T04:37:23;18.80;;;11.23;;
21671;SDS011;10997;52.242;8.168;2023-05-10T04:42:24;15.07;;;10.77;;
21671;SDS011;10997;52.242;8.168;2023-05-10T04:47:25;13.38;;;10.98;;
21671;SDS011;10997;52.242;8.168;2023-05-10T04:52:25;12.82;;;10.15;;
21671;SDS011;10997;52.242;8.168;2023-05-10T04:57:26;15.57;;;10.13;;
21671;SDS011;10997;52.242;8.168;2023-05-10T05:02:26;15.68;;;9.48;;
21671;SDS011;10997;52.242;8.168;2023-05-10T05:07:27;12.02;;;8.98;;
21671;SDS011;10997;52.242;8.168;2023-05-10T05:12:28;11.70;;;8.57;;
21671;SDS011;10997;52.242;8.168;2023-05-10T05:17:29;10.32;;;7.80;;
21671;SDS011;10997;52.242;8.168;2023-05-10T05:22:31;12.00;;;8.15;;
21671;SDS011;10997;52.242;8.168;2023-05-10T05:27:31;12.55;;;8.93;;
21671;SDS011;10997;52.242;8.168;2023-05-10T05:32:32;13.30;;;9.45;;
21671;SDS011;10997;52.242;8.168;2023-05-10T05:37:32;12.75;;;8.63;;
21671;SDS011;10997;52.242;8.168;2023-05-10T05:42:33;12.80;;;9.13;;
21671;SDS011;10997;52.242;8.168;2023-05-10T05:47:34;10.70;;;7.97;;
21671;SDS011;10997;52.242;8.168;2023-05-10T05:52:34;9.90;;;7.55;;
21671;SDS011;10997;52.242;8.168;2023-05-10T05:57:35;9.50;;;7.40;;
21671;SDS011;10997;52.242;8.168;2023-05-10T06:02:36;11.13;;;6.68;;
21671;SDS011;10997;52.242;8.168;2023-05-10T06:07:37;9.45;;;6.50;;
21671;SDS011;10997;52.242;8.168;2023-05-10T06:12:37;10.10;;;6.05;;
21671;SDS011;10997;52.242;8.168;2023-05-10T06:17:38;7.55;;;6.32;;
21671;SDS011;10997;52.242;8.168;2023-05-10T06:22:38;9.52;;;6.88;;
21671;SDS011;10997;52.242;8.168;2023-05-10T06:27:39;8.73;;;7.32;;
21671;SDS011;10997;52.242;8.168;2023-05-10T06:32:41;8.55;;;6.82;;
21671;SDS011;10997;52.242;8.168;2023-05-10T06:37:43;12.45;;;7.72;;
21671;SDS011;10997;52.242;8.168;2023-05-10T06:42:44;11.18;;;7.78;;
21671;SDS011;10997;52.242;8.168;2023-05-10T06:47:46;10.10;;;8.23;;
21671;SDS011;10997;52.242;8.168;2023-05-10T06:52:46;11.23;;;9.10;;
21671;SDS011;10997;52.242;8.168;2023-05-10T06:57:47;10.43;;;8.45;;
21671;SDS011;10997;52.242;8.168;2023-05-10T07:02:47;13.88;;;9.93;;
21671;SDS011;10997;52.242;8.168;2023-05-10T07:07:48;13.88;;;10.43;;
21671;SDS011;10997;52.242;8.168;2023-05-10T07:12:49;17.45;;;12.00;;
21671;SDS011;10997;52.242;8.168;2023-05-10T07:17:50;19.38;;;12.68;;
21671;SDS011;10997;52.242;8.168;2023-05-10T07:22:52;22.40;;;15.00;;
21671;SDS011;10997;52.242;8.168;2023-05-10T07:27:52;22.63;;;14.88;;
21671;SDS011;10997;52.242;8.168;2023-05-10T07:32:53;26.52;;;17.15;;
21671;SDS011;10997;52.242;8.168;2023-05-10T07:37:53;27.63;;;17.40;;
21671;SDS011;10997;52.242;8.168;2023-05-10T07:42:54;32.60;;;19.15;;
21671;SDS011;10997;52.242;8.168;2023-05-10T07:47:55;36.72;;;20.40;;
21671;SDS011;10997;52.242;8.168;2023-05-10T07:52:55;34.17;;;20.00;;
21671;SDS011;10997;52.242;8.168;2023-05-10T07:57:56;40.42;;;20.92;;
21671;SDS011;10997;52.242;8.168;2023-05-10T08:02:57;40.70;;;21.38;;
21671;SDS011;10997;52.242;8.168;2023-05-10T08:07:57;35.10;;;20.38;;
21671;SDS011;10997;52.242;8.168;2023-05-10T08:12:59;32.83;;;19.95;;
21671;SDS011;10997;52.242;8.168;2023-05-10T08:18:00;35.03;;;20.73;;
21671;SDS011;10997;52.242;8.168;2023-05-10T08:23:00;33.40;;;19.45;;
21671;SDS011;10997;52.242;8.168;2023-05-10T08:28:01;34.13;;;21.58;;
21671;SDS011;10997;52.242;8.168;2023-05-10T08:33:01;38.42;;;22.05;;
21671;SDS011;10997;52.242;8.168;2023-05-10T08:38:02;40.55;;;22.17;;
21671;SDS011;10997;52.242;8.168;2023-05-10T08:43:06;37.47;;;21.67;;
21671;SDS011;10997;52.242;8.168;2023-05-10T08:48:09;38.47;;;22.77;;
21671;SDS011;10997;52.242;8.168;2023-05-10T08:53:11;37.42;;;22.65;;
21671;SDS011;10997;52.242;8.168;2023-05-10T08:58:13;36.80;;;20.50;;
21671;SDS011;10997;52.242;8.168;2023-05-10T09:03:13;28.50;;;17.45;;
21671;SDS011;10997;52.242;8.168;2023-05-10T09:08:15;28.40;;;18.02;;
21671;SDS011;10997;52.242;8.168;2023-05-10T09:13:16;27.92;;;17.17;;
21671;SDS011;10997;52.242;8.168;2023-05-10T09:18:18;28.20;;;17.67;;
21671;SDS011;10997;52.242;8.168;2023-05-10T09:23:19;28.85;;;18.33;;
21671;SDS011;10997;52.242;8.168;2023-05-10T09:28:19;29.63;;;18.30;;
21671;SDS011;10997;52.242;8.168;2023-05-10T09:33:20;29.77;;;17.88;;
21671;SDS011;10997;52.242;8.168;2023-05-10T09:38:20;29.15;;;18.60;;
21671;SDS011;10997;52.242;8.168;2023-05-10T09:43:21;28.92;;;17.70;;
21671;SDS011;10997;52.242;8.168;2023-05-10T09:48:23;27.17;;;16.00;;
21671;SDS011;10997;52.242;8.168;2023-05-10T09:53:24;28.08;;;17.38;;
21671;SDS011;10997;52.242;8.168;2023-05-10T09:58:25;27.50;;;16.80;;
21671;SDS011;10997;52.242;8.168;2023-05-10T10:03:26;25.70;;;16.30;;
21671;SDS011;10997;52.242;8.168;2023-05-10T10:08:26;24.05;;;16.13;;
21671;SDS011;10997;52.242;8.168;2023-05-10T10:13:27;24.80;;;15.25;;
21671;SDS011;10997;52.242;8.168;2023-05-10T10:18:28;24.42;;;17.30;;
21671;SDS011;10997;52.242;8.168;2023-05-10T10:23:30;26.90;;;17.08;;
21671;SDS011;10997;52.242;8.168;2023-05-10T10:29:16;27.77;;;17.83;;
21671;SDS011;10997;52.242;8.168;2023-05-10T10:34:11;29.98;;;18.77;;
21671;SDS011;10997;52.242;8.168;2023-05-10T10:39:28;29.52;;;16.90;;
21671;SDS011;10997;52.242;8.168;2023-05-10T10:44:37;25.40;;;16.80;;
21671;SDS011;10997;52.242;8.168;2023-05-10T10:49:43;28.27;;;17.23;;
21671;SDS011;10997;52.242;8.168;2023-05-10T11:00:18;19.80;;;13.13;;
21671;SDS011;10997;52.242;8.168;2023-05-10T11:10:29;20.52;;;12.90;;
21671;SDS011;10997;52.242;8.168;2023-05-10T11:15:30;19.23;;;13.25;;
21671;SDS011;10997;52.242;8.168;2023-05-10T11:20:38;21.08;;;13.88;;
21671;SDS011;10997;52.242;8.168;2023-05-10T11:25:42;21.05;;;13.68;;
21671;SDS011;10997;52.242;8.168;2023-05-10T11:30:47;20.02;;;12.98;;
21671;SDS011;10997;52.242;8.168;2023-05-10T11:35:48;20.98;;;14.43;;
21671;SDS011;10997;52.242;8.168;2023-05-10T11:40:50;22.02;;;14.18;;
21671;SDS011;10997;52.242;8.168;2023-05-10T11:45:53;23.75;;;12.95;;
21671;SDS011;10997;52.242;8.168;2023-05-10T11:50:54;19.42;;;12.43;;
21671;SDS011;10997;52.242;8.168;2023-05-10T11:56:05;19.38;;;12.45;;
21671;SDS011;10997;52.242;8.168;2023-05-10T12:01:10;19.98;;;12.77;;
21671;SDS011;10997;52.242;8.168;2023-05-10T12:06:11;15.55;;;11.05;;
21671;SDS011;10997;52.242;8.168;2023-05-10T12:11:12;14.82;;;10.15;;
21671;SDS011;10997;52.242;8.168;2023-05-10T12:16:18;15.38;;;9.88;;
21671;SDS011;10997;52.242;8.168;2023-05-10T12:21:20;16.75;;;9.98;;
21671;SDS011;10997;52.242;8.168;2023-05-10T12:26:21;14.93;;;8.90;;
21671;SDS011;10997;52.242;8.168;2023-05-10T12:31:24;13.43;;;8.85;;
21671;SDS011;10997;52.242;8.168;2023-05-10T12:36:24;14.35;;;8.90;;
21671;SDS011;10997;52.242;8.168;2023-05-10T12:41:25;18.30;;;9.50;;
21671;SDS011;10997;52.242;8.168;2023-05-10T12:46:26;14.57;;;10.48;;
21671;SDS011;10997;52.242;8.168;2023-05-10T12:51:27;15.73;;;9.93;;
21671;SDS011;10997;52.242;8.168;2023-05-10T12:56:28;16.08;;;9.88;;
21671;SDS011;10997;52.242;8.168;2023-05-10T13:01:28;15.38;;;10.25;;
21671;SDS011;10997;52.242;8.168;2023-05-10T13:06:29;16.45;;;10.77;;
21671;SDS011;10997;52.242;8.168;2023-05-10T13:11:30;14.25;;;10.05;;
21671;SDS011;10997;52.242;8.168;2023-05-10T13:16:31;16.65;;;10.38;;
21671;SDS011;10997;52.242;8.168;2023-05-10T13:21:32;16.08;;;10.43;;
21671;SDS011;10997;52.242;8.168;2023-05-10T13:26:32;16.55;;;9.50;;
21671;SDS011;10997;52.242;8.168;2023-05-10T13:31:33;17.45;;;10.30;;
21671;SDS011;10997;52.242;8.168;2023-05-10T13:36:35;15.48;;;9.50;;
21671;SDS011;10997;52.242;8.168;2023-05-10T13:41:35;15.02;;;9.63;;
21671;SDS011;10997;52.242;8.168;2023-05-10T13:46:36;15.73;;;9.77;;
21671;SDS011;10997;52.242;8.168;2023-05-10T13:51:38;18.45;;;10.93;;
21671;SDS011;10997;52.242;8.168;2023-05-10T13:56:39;20.70;;;12.27;;
21671;SDS011;10997;52.242;8.168;2023-05-10T14:01:43;20.13;;;12.47;;
21671;SDS011;10997;52.242;8.168;2023-05-10T14:06:44;21.40;;;13.35;;
21671;SDS011;10997;52.242;8.168;2023-05-10T14:11:45;21.77;;;13.48;;
21671;SDS011;10997;52.242;8.168;2023-05-10T14:16:46;25.00;;;13.65;;
21671;SDS011;10997;52.242;8.168;2023-05-10T14:21:47;24.17;;;13.48;;
21671;SDS011;10997;52.242;8.168;2023-05-10T14:26:47;23.35;;;13.60;;
21671;SDS011;10997;52.242;8.168;2023-05-10T14:31:48;20.55;;;13.48;;
21671;SDS011;10997;52.242;8.168;2023-05-10T14:36:48;22.90;;;13.52;;
21671;SDS011;10997;52.242;8.168;2023-05-10T14:41:49;21.38;;;13.27;;
21671;SDS011;10997;52.242;8.168;2023-05-10T14:46:51;19.35;;;12.25;;
21671;SDS011;10997;52.242;8.168;2023-05-10T14:51:52;20.80;;;12.68;;
21671;SDS011;10997;52.242;8.168;2023-05-10T14:56:52;19.83;;;12.82;;
21671;SDS011;10997;52.242;8.168;2023-05-10T15:01:53;28.23;;;15.55;;
21671;SDS011;10997;52.242;8.168;2023-05-10T15:06:53;19.25;;;11.52;;
21671;SDS011;10997;52.242;8.168;2023-05-10T15:11:58;24.92;;;13.10;;
21671;SDS011;10997;52.242;8.168;2023-05-10T15:16:59;24.92;;;14.05;;
21671;SDS011;10997;52.242;8.168;2023-05-10T15:22:00;20.33;;;13.20;;
21671;SDS011;10997;52.242;8.168;2023-05-10T15:27:00;21.27;;;13.07;;
21671;SDS011;10997;52.242;8.168;2023-05-10T15:32:01;25.80;;;14.20;;
21671;SDS011;10997;52.242;8.168;2023-05-10T15:37:03;31.42;;;16.50;;
21671;SDS011;10997;52.242;8.168;2023-05-10T15:42:04;28.75;;;16.67;;
21671;SDS011;10997;52.242;8.168;2023-05-10T15:47:05;25.10;;;15.85;;
21671;SDS011;10997;52.242;8.168;2023-05-10T15:52:05;24.02;;;15.25;;
21671;SDS011;10997;52.242;8.168;2023-05-10T15:57:06;23.42;;;14.40;;
21671;SDS011;10997;52.242;8.168;2023-05-10T16:02:07;25.77;;;14.05;;
21671;SDS011;10997;52.242;8.168;2023-05-10T16:07:09;23.10;;;13.88;;
21671;SDS011;10997;52.242;8.168;2023-05-10T16:12:10;22.92;;;13.52;;
21671;SDS011;10997;52.242;8.168;2023-05-10T16:17:11;22.48;;;14.07;;
21671;SDS011;10997;52.242;8.168;2023-05-10T16:22:11;22.95;;;13.70;;
21671;SDS011;10997;52.242;8.168;2023-05-10T16:27:12;24.05;;;14.27;;
21671;SDS011;10997;52.242;8.168;2023-05-10T16:32:13;22.10;;;13.52;;
21671;SDS011;10997;52.242;8.168;2023-05-10T16:37:14;22.80;;;14.07;;
21671;SDS011;10997;52.242;8.168;2023-05-10T16:42:14;26.58;;;14.48;;
21671;SDS011;10997;52.242;8.168;2023-05-10T16:47:15;24.30;;;13.38;;
21671;SDS011;10997;52.242;8.168;2023-05-10T16:52:16;22.02;;;14.10;;
21671;SDS011;10997;52.242;8.168;2023-05-10T16:57:16;21.73;;;14.68;;
21671;SDS011;10997;52.242;8.168;2023-05-10T17:02:17;21.92;;;13.73;;
21671;SDS011;10997;52.242;8.168;2023-05-10T17:07:18;22.98;;;13.77;;
21671;SDS011;10997;52.242;8.168;2023-05-10T17:12:18;23.17;;;14.13;;
21671;SDS011;10997;52.242;8.168;2023-05-10T17:17:19;28.02;;;14.50;;
21671;SDS011;10997;52.242;8.168;2023-05-10T17:22:20;24.33;;;14.15;;
21671;SDS011;10997;52.242;8.168;2023-05-10T17:27:20;26.13;;;15.55;;
21671;SDS011;10997;52.242;8.168;2023-05-10T17:32:21;23.40;;;15.30;;
21671;SDS011;10997;52.242;8.168;2023-05-10T17:37:22;23.63;;;14.73;;
21671;SDS011;10997;52.242;8.168;2023-05-10T17:42:22;20.73;;;13.05;;
21671;SDS011;10997;52.242;8.168;2023-05-10T17:47:23;21.85;;;13.40;;
21671;SDS011;10997;52.242;8.168;2023-05-10T17:52:24;20.98;;;13.23;;
21671;SDS011;10997;52.242;8.168;2023-05-10T17:57:24;23.75;;;14.73;;
21671;SDS011;10997;52.242;8.168;2023-05-10T18:02:25;25.40;;;17.27;;
21671;SDS011;10997;52.242;8.168;2023-05-10T18:07:26;23.60;;;14.73;;
21671;SDS011;10997;52.242;8.168;2023-05-10T18:12:28;22.38;;;14.88;;
21671;SDS011;10997;52.242;8.168;2023-05-10T18:17:29;25.23;;;15.73;;
21671;SDS011;10997;52.242;8.168;2023-05-10T18:22:30;25.42;;;16.30;;
21671;SDS011;10997;52.242;8.168;2023-05-10T18:27:30;22.60;;;15.40;;
21671;SDS011;10997;52.242;8.168;2023-05-10T18:32:31;27.88;;;16.48;;
21671;SDS011;10997;52.242;8.168;2023-05-10T18:37:32;20.55;;;13.95;;
21671;SDS011;10997;52.242;8.168;2023-05-10T18:42:33;23.77;;;14.15;;
21671;SDS011;10997;52.242;8.168;2023-05-10T18:47:34;28.10;;;14.85;;
21671;SDS011;10997;52.242;8.168;2023-05-10T18:52:35;20.98;;;13.93;;
21671;SDS011;10997;52.242;8.168;2023-05-10T18:57:38;23.48;;;15.40;;
21671;SDS011;10997;52.242;8.168;2023-05-10T19:02:42;21.75;;;14.65;;
21671;SDS011;10997;52.242;8.168;2023-05-10T19:07:43;22.52;;;14.10;;
21671;SDS011;10997;52.242;8.168;2023-05-10T19:12:43;68.35;;;48.33;;
21671;SDS011;10997;52.242;8.168;2023-05-10T19:17:44;24.35;;;16.10;;
21671;SDS011;10997;52.242;8.168;2023-05-10T19:22:44;25.98;;;16.58;;
21671;SDS011;10997;52.242;8.168;2023-05-10T19:27:45;29.15;;;17.92;;
21671;SDS011;10997;52.242;8.168;2023-05-10T19:32:46;30.90;;;19.77;;
21671;SDS011;10997;52.242;8.168;2023-05-10T19:37:46;36.05;;;21.42;;
21671;SDS011;10997;52.242;8.168;2023-05-10T19:42:48;46.38;;;29.33;;
21671;SDS011;10997;52.242;8.168;2023-05-10T19:47:49;48.83;;;29.10;;
21671;SDS011;10997;52.242;8.168;2023-05-10T19:52:49;42.90;;;25.65;;
21671;SDS011;10997;52.242;8.168;2023-05-10T19:57:50;34.67;;;21.73;;
21671;SDS011;10997;52.242;8.168;2023-05-10T20:02:51;37.70;;;21.33;;
21671;SDS011;10997;52.242;8.168;2023-05-10T20:07:52;33.95;;;20.38;;
21671;SDS011;10997;52.242;8.168;2023-05-10T20:12:53;34.17;;;21.40;;
21671;SDS011;10997;52.242;8.168;2023-05-10T20:17:54;34.17;;;21.13;;
21671;SDS011;10997;52.242;8.168;2023-05-10T20:22:55;34.42;;;20.13;;
21671;SDS011;10997;52.242;8.168;2023-05-10T20:27:56;31.27;;;19.05;;
21671;SDS011;10997;52.242;8.168;2023-05-10T20:32:57;32.95;;;18.55;;
21671;SDS011;10997;52.242;8.168;2023-05-10T20:37:57;28.35;;;17.63;;
21671;SDS011;10997;52.242;8.168;2023-05-10T20:42:58;28.83;;;17.42;;
21671;SDS011;10997;52.242;8.168;2023-05-10T20:47:59;23.70;;;15.50;;
21671;SDS011;10997;52.242;8.168;2023-05-10T20:53:00;26.77;;;15.80;;
21671;SDS011;10997;52.242;8.168;2023-05-10T20:58:00;25.40;;;15.23;;
21671;SDS011;10997;52.242;8.168;2023-05-10T21:03:01;26.08;;;15.80;;
21671;SDS011;10997;52.242;8.168;2023-05-10T21:08:02;23.77;;;15.43;;
21671;SDS011;10997;52.242;8.168;2023-05-10T21:13:03;21.98;;;14.55;;
21671;SDS011;10997;52.242;8.168;2023-05-10T21:18:03;23.80;;;14.23;;
21671;SDS011;10997;52.242;8.168;2023-05-10T21:23:04;25.20;;;14.43;;
21671;SDS011;10997;52.242;8.168;2023-05-10T21:28:05;23.52;;;14.10;;
21671;SDS011;10997;52.242;8.168;2023-05-10T21:33:05;25.90;;;16.15;;
21671;SDS011;10997;52.242;8.168;2023-05-10T21:38:06;24.13;;;14.95;;
21671;SDS011;10997;52.242;8.168;2023-05-10T21:43:07;27.88;;;15.63;;
21671;SDS011;10997;52.242;8.168;2023-05-10T21:48:08;22.48;;;15.60;;
21671;SDS011;10997;52.242;8.168;2023-05-10T21:53:09;23.38;;;15.93;;
21671;SDS011;10997;52.242;8.168;2023-05-10T21:58:09;24.75;;;16.00;;
21671;SDS011;10997;52.242;8.168;2023-05-10T22:03:10;27.65;;;17.17;;
21671;SDS011;10997;52.242;8.168;2023-05-10T22:08:10;29.45;;;18.02;;
21671;SDS011;10997;52.242;8.168;2023-05-10T22:13:11;25.92;;;16.65;;
21671;SDS011;10997;52.242;8.168;2023-05-10T22:18:12;27.05;;;17.33;;
21671;SDS011;10997;52.242;8.168;2023-05-10T22:23:13;24.88;;;16.13;;
21671;SDS011;10997;52.242;8.168;2023-05-10T22:28:13;24.67;;;15.52;;
21671;SDS011;10997;52.242;8.168;2023-05-10T22:33:15;24.27;;;16.40;;
21671;SDS011;10997;52.242;8.168;2023-05-10T22:38:16;27.27;;;16.65;;
21671;SDS011;10997;52.242;8.168;2023-05-10T22:43:16;28.25;;;16.42;;
21671;SDS011;10997;52.242;8.168;2023-05-10T22:48:17;25.38;;;15.93;;
21671;SDS011;10997;52.242;8.168;2023-05-10T22:53:19;23.63;;;16.15;;
21671;SDS011;10997;52.242;8.168;2023-05-10T22:58:19;26.95;;;16.90;;
21671;SDS011;10997;52.242;8.168;2023-05-10T23:03:20;23.63;;;16.23;;
21671;SDS011;10997;52.242;8.168;2023-05-10T23:08:21;23.38;;;15.77;;
21671;SDS011;10997;52.242;8.168;2023-05-10T23:13:21;24.25;;;16.23;;
21671;SDS011;10997;52.242;8.168;2023-05-10T23:18:23;24.95;;;15.77;;
21671;SDS011;10997;52.242;8.168;2023-05-10T23:23:24;22.73;;;15.70;;
21671;SDS011;10997;52.242;8.168;2023-05-10T23:28:24;24.73;;;16.40;;
21671;SDS011;10997;52.242;8.168;2023-05-10T23:33:25;24.17;;;15.82;;
21671;SDS011;10997;52.242;8.168;2023-05-10T23:38:25;22.90;;;14.45;;
21671;SDS011;10997;52.242;8.168;2023-05-10T23:43:26;22.10;;;14.57;;
21671;SDS011;10997;52.242;8.168;2023-05-10T23:48:27;21.48;;;14.90;;
21671;SDS011;10997;52.242;8.168;2023-05-10T23:53:27;24.20;;;14.90;;
21671;SDS011;10997;52.242;8.168;2023-05-10T23:58:28;23.73;;;15.15;;
